Arch, New Mexico
Current Conditions -  °F | °C
As of 7:58 PM on Wednesday 22 Oct 2014 (Local Time) from KCVS Reporting Station
Clear Clear  
Wind Chill: 60°   Ceiling: Unl
Heat Index: 60°   Visibility: 10mi
Dew Point: 51°   Wind: 7mph
Humidity: 73%   Direction: 180°S
Pressure: 30.11"   Gusts: NA
Location:  34.1669°N, 103.266°W
Report Text: KCVS 230158Z AUTO 18006KT 10SM CLR 16/11 A3011 RMK AO2 SLP158 T01560107 $
Loading
Personal Weather Stations






























Interactive Weather Map New forecast layout! Learn more

10-Day Weather Forecast

Advertisements
Track Severe Weather on mobile